Time;durP1;ratioP1;P1;durP2;ratioP2;P2;SDS_P1;SDS_P2;PMS_P1;PMS_P2;Temp;Humidity;BMP_temperature;BMP_pressure;BME280_temperature;BME280_humidity;BME280_pressure;Samples;Min_cycle;Max_cycle;Signal;HPM_P1;HPM_P2
2022/03/04 00:01:56;;;;;;;23.10;16.40;;;2.90;75.50;;;;;;5112403;28;20211;-67
2022/03/04 00:04:24;;;;;;;23.67;15.60;;;2.80;75.40;;;;;;5112490;28;20552;-68
2022/03/04 00:06:51;;;;;;;22.88;15.63;;;2.80;76.10;;;;;;5112616;28;20205;-66
2022/03/04 00:09:19;;;;;;;25.05;16.00;;;2.80;76.00;;;;;;5113003;28;20225;-66
2022/03/04 00:11:46;;;;;;;22.85;16.05;;;2.70;76.60;;;;;;5112604;28;20203;-65
2022/03/04 00:14:13;;;;;;;22.80;15.15;;;2.60;76.80;;;;;;5112488;28;20659;-67
2022/03/04 00:16:40;;;;;;;24.60;15.73;;;2.60;76.80;;;;;;5112226;28;20193;-66
2022/03/04 00:19:08;;;;;;;21.95;15.15;;;2.60;77.40;;;;;;5112783;28;20221;-66
2022/03/04 00:21:38;;;;;;;23.40;15.90;;;2.50;77.60;;;;;;5115864;28;20231;-66
2022/03/04 00:24:05;;;;;;;23.13;15.57;;;2.50;77.60;;;;;;5116664;28;20204;-68
2022/03/04 00:26:32;;;;;;;22.50;15.10;;;2.40;77.60;;;;;;5116460;28;20606;-66
2022/03/04 00:28:59;;;;;;;22.30;15.90;;;2.50;78.10;;;;;;5117016;28;20221;-67
2022/03/04 00:31:26;;;;;;;17.98;13.82;;;2.40;78.00;;;;;;5116479;28;20574;-66
2022/03/04 00:33:53;;;;;;;23.30;14.80;;;2.40;78.20;;;;;;5116517;28;20667;-67
2022/03/04 00:36:22;;;;;;;20.92;15.35;;;2.40;78.60;;;;;;5116467;28;20228;-67
2022/03/04 00:38:50;;;;;;;23.25;14.63;;;2.40;78.80;;;;;;5117177;28;20772;-68
2022/03/04 00:41:18;;;;;;;22.25;14.45;;;2.40;79.00;;;;;;5116318;28;20290;-66
2022/03/04 00:43:45;;;;;;;20.95;14.77;;;2.40;78.80;;;;;;5116380;27;20319;-64
2022/03/04 00:46:13;;;;;;;22.65;14.65;;;2.40;78.60;;;;;;5116303;28;20221;-66
2022/03/04 00:48:40;;;;;;;22.02;14.82;;;2.40;78.50;;;;;;5116396;28;20217;-66
2022/03/04 00:51:07;;;;;;;21.02;14.70;;;2.40;78.80;;;;;;5116347;27;20627;-65
2022/03/04 00:53:34;;;;;;;23.65;15.52;;;2.40;78.80;;;;;;5116184;28;20204;-66
2022/03/04 00:56:02;;;;;;;24.95;16.10;;;2.30;78.90;;;;;;5116113;27;20284;-66
2022/03/04 00:58:29;;;;;;;22.20;15.10;;;2.30;79.20;;;;;;5115889;28;20233;-66
2022/03/04 01:00:56;;;;;;;23.60;14.70;;;2.20;79.40;;;;;;5116378;28;20234;-66
2022/03/04 01:03:23;;;;;;;23.40;14.85;;;2.20;79.90;;;;;;5116233;28;20577;-65
2022/03/04 01:05:50;;;;;;;26.95;16.15;;;2.20;80.00;;;;;;5115976;28;20221;-66
2022/03/04 01:08:17;;;;;;;21.65;15.02;;;2.10;80.30;;;;;;5116005;28;20221;-67
2022/03/04 01:10:44;;;;;;;22.20;15.10;;;2.10;81.00;;;;;;5116085;28;20671;-66
2022/03/04 01:13:13;;;;;;;23.70;14.82;;;2.10;81.20;;;;;;5115986;28;20202;-67
2022/03/04 01:15:40;;;;;;;21.67;14.60;;;2.10;81.10;;;;;;5115686;28;20201;-66
2022/03/04 01:18:06;;;;;;;22.30;14.43;;;2.10;81.30;;;;;;5115758;28;20201;-65
2022/03/04 01:20:33;;;;;;;20.92;14.70;;;2.10;81.80;;;;;;5115822;28;20202;-64
2022/03/04 01:23:00;;;;;;;23.77;15.52;;;2.00;81.70;;;;;;5115630;28;20208;-66
2022/03/04 01:25:28;;;;;;;21.35;14.80;;;2.00;81.70;;;;;;5115223;28;20687;-64
2022/03/04 01:27:55;;;;;;;21.55;14.98;;;2.00;82.00;;;;;;5115342;28;20672;-65
2022/03/04 01:30:23;;;;;;;22.55;14.40;;;2.00;82.10;;;;;;5115584;28;20204;-66
2022/03/04 01:32:50;;;;;;;22.27;15.05;;;2.00;82.00;;;;;;5115096;28;20202;-66
2022/03/04 01:35:17;;;;;;;21.90;14.50;;;2.00;82.20;;;;;;5115181;28;20631;-67
2022/03/04 01:37:44;;;;;;;25.45;14.80;;;2.00;82.20;;;;;;5115341;28;20288;-66
2022/03/04 01:40:12;;;;;;;23.83;15.48;;;1.90;82.30;;;;;;5115553;28;20651;-64
2022/03/04 01:42:40;;;;;;;23.55;14.82;;;1.90;82.40;;;;;;5115497;28;20288;-64
2022/03/04 01:45:09;;;;;;;21.70;15.38;;;1.90;82.60;;;;;;5115374;27;20204;-67
2022/03/04 01:47:41;;;;;;;23.42;15.73;;;2.00;82.80;;;;;;5115288;28;20201;-64
2022/03/04 01:50:09;;;;;;;24.05;15.07;;;2.10;82.20;;;;;;5115491;28;20286;-66
2022/03/04 01:52:36;;;;;;;22.42;16.55;;;2.10;82.10;;;;;;5114892;28;20574;-66
2022/03/04 01:55:03;;;;;;;23.48;15.50;;;2.10;82.20;;;;;;5115217;28;20623;-67
2022/03/04 01:57:30;;;;;;;19.95;14.88;;;2.00;82.10;;;;;;5115078;28;20292;-65
2022/03/04 01:59:56;;;;;;;24.80;15.70;;;2.00;82.40;;;;;;5115700;28;20315;-65
2022/03/04 02:02:23;;;;;;;23.70;15.57;;;2.00;82.30;;;;;;5116134;27;20197;-69
2022/03/04 02:04:52;;;;;;;26.42;16.85;;;2.10;82.90;;;;;;5116267;28;20224;-67
2022/03/04 02:07:19;;;;;;;20.10;14.30;;;2.00;82.60;;;;;;5116166;28;20320;-67
2022/03/04 02:09:46;;;;;;;24.05;16.25;;;2.00;82.70;;;;;;5115722;28;20226;-67
2022/03/04 02:12:13;;;;;;;22.00;15.98;;;2.00;83.20;;;;;;5116481;27;20197;-67
2022/03/04 02:14:39;;;;;;;22.50;15.52;;;2.00;83.60;;;;;;5115961;28;20292;-67
2022/03/04 02:17:07;;;;;;;22.92;15.00;;;1.90;83.90;;;;;;5116066;28;20224;-67
2022/03/04 02:19:34;;;;;;;25.45;16.20;;;1.90;84.60;;;;;;5115926;28;20226;-67
2022/03/04 02:22:04;;;;;;;25.52;16.35;;;1.70;85.10;;;;;;5115830;28;20205;-67
2022/03/04 02:24:33;;;;;;;27.50;17.35;;;1.70;85.60;;;;;;5115939;28;20212;-67
2022/03/04 02:27:01;;;;;;;23.73;15.40;;;1.70;85.90;;;;;;5115659;28;20228;-67
2022/03/04 02:29:29;;;;;;;24.95;16.40;;;1.70;86.20;;;;;;5115562;28;20221;-67
2022/03/04 02:31:56;;;;;;;20.27;14.02;;;1.70;86.80;;;;;;5115535;28;20251;-67
2022/03/04 02:34:23;;;;;;;24.40;16.27;;;1.70;87.10;;;;;;5115741;28;20241;-67
2022/03/04 02:36:50;;;;;;;24.80;15.85;;;1.70;87.30;;;;;;5115445;28;20237;-67
2022/03/04 02:39:18;;;;;;;25.13;15.70;;;1.70;87.60;;;;;;5115607;28;20564;-67
2022/03/04 02:41:45;;;;;;;26.67;16.35;;;1.70;87.50;;;;;;5115271;27;20201;-67
2022/03/04 02:44:14;;;;;;;26.33;16.45;;;1.70;87.40;;;;;;5114772;27;20298;-67
2022/03/04 02:46:41;;;;;;;27.17;17.27;;;1.80;87.30;;;;;;5115293;28;20218;-67
2022/03/04 02:49:10;;;;;;;28.77;18.00;;;1.80;87.10;;;;;;5115088;28;20235;-67
2022/03/04 02:51:37;;;;;;;23.50;16.20;;;1.80;87.40;;;;;;5115043;28;20686;-67
2022/03/04 02:54:04;;;;;;;25.98;16.23;;;1.80;86.90;;;;;;5115166;28;20205;-67
2022/03/04 02:56:33;;;;;;;27.17;17.33;;;1.70;86.80;;;;;;5115149;28;20211;-67
2022/03/04 02:59:00;;;;;;;23.58;16.02;;;1.70;87.00;;;;;;5115153;28;20221;-67
2022/03/04 03:01:27;;;;;;;26.73;17.17;;;1.70;87.60;;;;;;5114997;28;20297;-67
2022/03/04 03:03:54;;;;;;;21.85;14.60;;;1.70;87.50;;;;;;5115185;28;20216;-67
2022/03/04 03:06:21;;;;;;;26.58;16.85;;;1.70;87.30;;;;;;5115027;28;20217;-67
2022/03/04 03:08:48;;;;;;;26.80;17.33;;;1.70;87.20;;;;;;5114808;28;20594;-67
2022/03/04 03:11:15;;;;;;;26.25;17.20;;;1.70;87.20;;;;;;5114894;28;20201;-67
2022/03/04 03:13:43;;;;;;;26.20;17.15;;;1.70;87.30;;;;;;5114841;28;20207;-67
2022/03/04 03:16:11;;;;;;;24.48;16.67;;;1.60;87.70;;;;;;5114675;28;20293;-67
2022/03/04 03:18:38;;;;;;;26.10;17.73;;;1.60;87.70;;;;;;5114482;28;20308;-67
2022/03/04 03:21:05;;;;;;;24.27;16.50;;;1.50;87.80;;;;;;5114702;28;20659;-67
2022/03/04 03:23:32;;;;;;;26.75;15.95;;;1.50;88.20;;;;;;5114660;28;20205;-67
2022/03/04 03:25:59;;;;;;;24.52;16.30;;;1.60;88.50;;;;;;5114737;28;20217;-67
2022/03/04 03:28:26;;;;;;;29.33;16.67;;;1.50;88.50;;;;;;5114616;28;20221;-69
2022/03/04 03:30:55;;;;;;;28.33;16.38;;;1.50;88.60;;;;;;5114477;28;20242;-67
2022/03/04 03:33:21;;;;;;;27.75;17.20;;;1.50;88.50;;;;;;5114681;28;20204;-67
2022/03/04 03:35:48;;;;;;;23.35;16.13;;;1.50;88.50;;;;;;5114402;28;20704;-67
2022/03/04 03:38:15;;;;;;;24.02;16.23;;;1.50;88.30;;;;;;5114375;28;20221;-66
2022/03/04 03:40:42;;;;;;;23.67;16.13;;;1.50;88.60;;;;;;5114375;28;20568;-66
2022/03/04 03:43:09;;;;;;;25.30;16.17;;;1.50;88.80;;;;;;5114139;28;20205;-67
2022/03/04 03:45:36;;;;;;;25.63;15.52;;;1.50;88.90;;;;;;5114380;28;20197;-67
2022/03/04 03:48:05;;;;;;;26.10;16.67;;;1.50;88.80;;;;;;5114571;28;20697;-67
2022/03/04 03:50:32;;;;;;;24.08;15.88;;;1.50;89.00;;;;;;5114159;28;20207;-67
2022/03/04 03:52:59;;;;;;;24.88;16.13;;;1.50;89.00;;;;;;5114457;28;20292;-67
2022/03/04 03:55:26;;;;;;;22.90;15.98;;;1.50;89.40;;;;;;5114158;28;20197;-67
2022/03/04 03:57:52;;;;;;;24.45;16.20;;;1.40;89.80;;;;;;5114146;28;20200;-70
2022/03/04 04:00:19;;;;;;;25.42;16.85;;;1.30;90.00;;;;;;5114128;28;20237;-68
2022/03/04 04:02:46;;;;;;;26.30;17.02;;;1.30;90.30;;;;;;5114182;28;20211;-69
2022/03/04 04:05:14;;;;;;;28.58;16.52;;;1.20;90.40;;;;;;5114229;28;20212;-67
2022/03/04 04:07:41;;;;;;;29.80;16.95;;;1.20;90.60;;;;;;5114055;28;20236;-69
2022/03/04 04:10:09;;;;;;;27.67;17.40;;;1.20;90.60;;;;;;5114118;28;20235;-68
2022/03/04 04:12:36;;;;;;;24.40;16.23;;;1.30;90.70;;;;;;5114093;28;20223;-69
2022/03/04 04:15:03;;;;;;;24.27;17.00;;;1.20;90.70;;;;;;5113880;28;20715;-68
2022/03/04 04:17:30;;;;;;;38.17;20.95;;;1.30;90.70;;;;;;5114015;28;20193;-69
2022/03/04 04:19:57;;;;;;;25.50;16.63;;;1.20;90.80;;;;;;5113815;28;20307;-69
2022/03/04 04:22:25;;;;;;;25.05;16.27;;;1.20;90.90;;;;;;5114007;28;20570;-69
2022/03/04 04:24:52;;;;;;;24.13;16.23;;;1.20;91.00;;;;;;5113982;28;20601;-69
2022/03/04 04:27:18;;;;;;;29.95;18.00;;;1.20;91.10;;;;;;5113660;28;20227;-69
2022/03/04 04:29:45;;;;;;;23.60;17.52;;;1.20;91.10;;;;;;5113713;28;20224;-69
2022/03/04 04:32:12;;;;;;;26.23;16.63;;;1.20;91.20;;;;;;5114062;28;20197;-69
2022/03/04 04:34:39;;;;;;;26.83;16.75;;;1.20;91.20;;;;;;5113733;28;20201;-69
2022/03/04 04:37:06;;;;;;;24.63;16.75;;;1.20;91.20;;;;;;5113581;28;20236;-69
2022/03/04 04:39:34;;;;;;;27.00;17.55;;;1.20;91.30;;;;;;5113793;28;20623;-69
2022/03/04 04:42:01;;;;;;;27.25;17.58;;;1.20;91.50;;;;;;5113898;28;20208;-68
2022/03/04 04:44:27;;;;;;;28.63;17.50;;;1.20;91.50;;;;;;5113607;28;20296;-69
2022/03/04 04:46:54;;;;;;;32.22;19.73;;;1.10;91.70;;;;;;5113697;28;20232;-69
2022/03/04 04:49:21;;;;;;;29.45;20.15;;;1.10;91.80;;;;;;5113670;28;20560;-69
2022/03/04 04:51:48;;;;;;;25.05;16.08;;;1.00;92.10;;;;;;5113548;28;20217;-69
2022/03/04 04:54:15;;;;;;;22.67;15.90;;;1.00;92.10;;;;;;5113699;28;20202;-68
2022/03/04 04:56:43;;;;;;;22.70;16.02;;;1.00;92.10;;;;;;5113694;28;20198;-68
2022/03/04 04:59:11;;;;;;;28.02;16.95;;;1.00;92.20;;;;;;5113247;28;20225;-68
2022/03/04 05:01:37;;;;;;;28.10;16.95;;;1.00;92.30;;;;;;5113474;28;20266;-68
2022/03/04 05:04:06;;;;;;;23.45;16.45;;;1.00;92.30;;;;;;5113315;28;20201;-68
2022/03/04 05:06:33;;;;;;;24.75;15.55;;;1.10;92.40;;;;;;5114798;28;20218;-68
2022/03/04 05:08:59;;;;;;;26.02;17.45;;;1.00;92.30;;;;;;5117365;28;20225;-68
2022/03/04 05:11:26;;;;;;;26.83;16.95;;;1.00;92.60;;;;;;5116985;28;20201;-68
2022/03/04 05:13:55;;;;;;;26.20;16.45;;;1.00;92.70;;;;;;5117528;28;20208;-68
2022/03/04 05:16:21;;;;;;;28.65;18.10;;;0.90;92.80;;;;;;5117240;28;20193;-68
2022/03/04 05:18:48;;;;;;;26.58;16.30;;;0.90;93.00;;;;;;5117085;28;20224;-68
2022/03/04 05:21:15;;;;;;;27.42;17.05;;;0.90;93.10;;;;;;5116727;28;20213;-68
2022/03/04 05:24:00;;;;;;;27.20;18.15;;;0.90;93.10;;;;;;5117107;28;20209;-68
2022/03/04 05:26:28;;;;;;;27.05;17.50;;;0.80;93.20;;;;;;5116869;28;20221;-68
2022/03/04 05:28:56;;;;;;;26.15;17.10;;;0.80;93.30;;;;;;5116931;28;20225;-68
2022/03/04 05:31:23;;;;;;;26.05;16.23;;;0.80;93.60;;;;;;5116733;28;20205;-68
2022/03/04 05:33:51;;;;;;;29.70;19.05;;;0.80;93.30;;;;;;5116932;28;20201;-68
2022/03/04 05:36:18;;;;;;;27.80;17.80;;;0.80;93.40;;;;;;5117107;28;20201;-69
2022/03/04 05:38:44;;;;;;;28.50;18.20;;;0.80;93.40;;;;;;5117174;28;20217;-68
2022/03/04 05:41:13;;;;;;;26.52;17.33;;;0.80;93.50;;;;;;5116683;28;20663;-68
2022/03/04 05:43:40;;;;;;;27.60;17.30;;;0.80;93.60;;;;;;5116369;28;20292;-68
2022/03/04 05:46:08;;;;;;;28.27;17.20;;;0.80;93.70;;;;;;5116696;28;20202;-68
2022/03/04 05:48:35;;;;;;;24.35;16.40;;;0.90;93.70;;;;;;5116517;28;20229;-68
2022/03/04 05:51:03;;;;;;;27.65;18.05;;;0.90;93.80;;;;;;5116276;28;20677;-68
2022/03/04 05:53:30;;;;;;;24.42;16.73;;;0.90;93.60;;;;;;5116465;28;20659;-68
2022/03/04 05:55:57;;;;;;;28.65;17.80;;;0.90;93.70;;;;;;5116447;28;20202;-68
2022/03/04 05:58:24;;;;;;;28.48;18.35;;;0.90;94.00;;;;;;5116471;28;20224;-68
2022/03/04 06:00:51;;;;;;;25.40;17.63;;;0.90;94.20;;;;;;5116252;28;20559;-68
2022/03/04 06:03:19;;;;;;;25.83;16.90;;;0.90;93.90;;;;;;5116311;28;20201;-68
2022/03/04 06:05:46;;;;;;;29.20;17.42;;;1.00;94.00;;;;;;5116195;28;20686;-68
2022/03/04 06:08:13;;;;;;;27.67;16.92;;;0.90;94.00;;;;;;5116351;28;20230;-68
2022/03/04 06:10:40;;;;;;;26.33;17.40;;;1.00;94.00;;;;;;5116106;27;20209;-69
2022/03/04 06:13:07;;;;;;;29.85;18.02;;;0.90;94.10;;;;;;5116125;28;20207;-68
2022/03/04 06:15:34;;;;;;;26.85;16.75;;;1.00;94.30;;;;;;5116139;28;20254;-68
2022/03/04 06:18:01;;;;;;;25.38;17.55;;;1.00;94.30;;;;;;5114667;28;20197;-69
2022/03/04 06:20:30;;;;;;;28.45;18.70;;;1.00;94.10;;;;;;5115951;28;20555;-68
2022/03/04 06:22:58;;;;;;;28.02;18.55;;;0.90;94.40;;;;;;5115994;27;20201;-68
2022/03/04 06:25:25;;;;;;;31.45;18.33;;;0.90;94.40;;;;;;5115850;28;20197;-68
2022/03/04 06:27:54;;;;;;;26.55;18.13;;;0.90;94.30;;;;;;5115636;28;20633;-69
2022/03/04 06:30:22;;;;;;;33.95;20.70;;;0.80;94.30;;;;;;5115684;28;20291;-69
2022/03/04 06:32:50;;;;;;;26.58;19.20;;;0.80;94.60;;;;;;5115498;28;20300;-68
2022/03/04 06:35:17;;;;;;;33.17;18.27;;;0.80;94.70;;;;;;5115690;28;20288;-68
2022/03/04 06:37:45;;;;;;;29.60;18.90;;;0.80;94.90;;;;;;5115789;28;20213;-68
2022/03/04 06:40:12;;;;;;;33.80;18.02;;;0.80;95.10;;;;;;5115369;28;20221;-68
2022/03/04 06:42:39;;;;;;;36.20;19.88;;;0.80;95.20;;;;;;5115441;28;20211;-68
2022/03/04 06:45:08;;;;;;;30.48;18.95;;;0.80;95.50;;;;;;5115475;28;20198;-68
2022/03/04 06:47:35;;;;;;;27.55;17.33;;;0.70;95.60;;;;;;5115300;28;20687;-68
2022/03/04 06:50:02;;;;;;;27.23;17.23;;;0.80;95.70;;;;;;5115093;28;20312;-68
2022/03/04 06:52:28;;;;;;;26.90;17.85;;;0.90;95.80;;;;;;5115362;28;20205;-68
2022/03/04 06:54:56;;;;;;;27.55;18.42;;;1.00;95.60;;;;;;5115448;28;20563;-68
2022/03/04 06:57:23;;;;;;;28.50;18.70;;;0.90;95.60;;;;;;5115331;28;20293;-68
2022/03/04 06:59:50;;;;;;;30.23;19.17;;;0.70;95.60;;;;;;5115014;28;20221;-69
2022/03/04 07:02:17;;;;;;;29.42;17.55;;;0.90;96.00;;;;;;5115133;28;20296;-68
2022/03/04 07:04:44;;;;;;;30.17;17.95;;;1.00;96.00;;;;;;5114796;28;20659;-68
2022/03/04 07:07:10;;;;;;;30.00;19.38;;;1.10;96.00;;;;;;5114968;28;20309;-68
2022/03/04 07:09:37;;;;;;;24.90;17.65;;;1.20;96.20;;;;;;5114700;28;20312;-68
2022/03/04 07:12:06;;;;;;;27.48;18.85;;;1.30;96.20;;;;;;5115095;28;20209;-68
2022/03/04 07:14:33;;;;;;;32.20;19.00;;;1.30;96.20;;;;;;5114925;28;20198;-68
2022/03/04 07:17:00;;;;;;;28.20;18.33;;;1.30;95.90;;;;;;5114895;27;20198;-68
2022/03/04 07:19:27;;;;;;;30.50;21.23;;;1.20;96.30;;;;;;5114711;28;20247;-68
2022/03/04 07:21:53;;;;;;;31.17;20.08;;;1.30;96.50;;;;;;5114680;28;20572;-69
2022/03/04 07:24:20;;;;;;;28.95;20.38;;;1.40;96.30;;;;;;5114714;28;20292;-68
2022/03/04 07:26:47;;;;;;;29.13;19.80;;;1.40;96.30;;;;;;5114315;28;20215;-68
2022/03/04 07:29:15;;;;;;;32.50;20.45;;;1.40;96.30;;;;;;5114479;28;20311;-68
2022/03/04 07:31:42;;;;;;;36.40;21.80;;;1.20;96.40;;;;;;5114967;28;20296;-68
2022/03/04 07:34:09;;;;;;;34.33;21.63;;;1.00;96.50;;;;;;5114510;28;20233;-69
2022/03/04 07:36:36;;;;;;;33.22;22.35;;;1.00;97.00;;;;;;5114379;28;20722;-69
2022/03/04 07:39:03;;;;;;;32.25;19.63;;;1.00;97.60;;;;;;5114549;28;20220;-68
2022/03/04 07:41:30;;;;;;;30.67;20.65;;;1.20;97.80;;;;;;5114297;28;20228;-68
2022/03/04 07:43:59;;;;;;;33.25;19.92;;;1.30;97.60;;;;;;5114444;28;20296;-68
2022/03/04 07:46:27;;;;;;;32.38;20.55;;;1.50;97.80;;;;;;5114408;28;20202;-69
2022/03/04 07:48:54;;;;;;;32.20;20.98;;;1.60;97.50;;;;;;5114203;27;20236;-68
2022/03/04 07:51:20;;;;;;;29.30;20.20;;;1.70;96.90;;;;;;5113982;28;20208;-69
2022/03/04 07:53:47;;;;;;;34.28;22.80;;;1.80;96.80;;;;;;5114283;28;20201;-68
2022/03/04 07:56:14;;;;;;;36.60;21.05;;;1.90;96.70;;;;;;5114274;28;20202;-69
2022/03/04 07:58:41;;;;;;;33.38;21.10;;;2.00;96.50;;;;;;5114080;28;20725;-68
2022/03/04 08:01:09;;;;;;;37.80;21.90;;;2.00;96.20;;;;;;5114078;28;20628;-68
2022/03/04 08:03:37;;;;;;;33.28;21.35;;;2.10;96.20;;;;;;5114214;28;20243;-69
2022/03/04 08:06:04;;;;;;;32.65;21.20;;;2.10;95.90;;;;;;5114146;28;20548;-68
2022/03/04 08:08:34;;;;;;;35.13;21.95;;;2.20;95.90;;;;;;5113992;28;20680;-69
2022/03/04 08:11:01;;;;;;;34.42;21.25;;;2.20;95.90;;;;;;5114241;28;20555;-68
2022/03/04 08:13:28;;;;;;;34.78;21.35;;;2.30;95.90;;;;;;5114018;28;20206;-69
2022/03/04 08:15:55;;;;;;;40.83;22.50;;;2.30;95.70;;;;;;5114015;28;20205;-69
2022/03/04 08:18:22;;;;;;;35.33;21.70;;;2.30;95.60;;;;;;5113948;28;20221;-69
2022/03/04 08:20:50;;;;;;;35.45;22.05;;;2.40;95.10;;;;;;5121119;28;20219;-69
2022/03/04 08:23:18;;;;;;;35.10;22.85;;;2.30;94.50;;;;;;5112961;28;20262;-69
2022/03/04 08:25:45;;;;;;;43.15;21.33;;;2.30;94.60;;;;;;5112613;28;20611;-69
2022/03/04 08:28:12;;;;;;;33.55;21.83;;;2.20;93.90;;;;;;5112304;28;20228;-69
2022/03/04 08:30:39;;;;;;;35.95;22.63;;;2.00;93.50;;;;;;5112415;28;20220;-69
2022/03/04 08:33:06;;;;;;;41.60;22.70;;;1.90;93.30;;;;;;5112474;28;20205;-69
2022/03/04 08:35:33;;;;;;;30.85;21.17;;;1.80;93.20;;;;;;5112660;28;20201;-69
2022/03/04 08:38:02;;;;;;;31.02;22.05;;;1.80;93.40;;;;;;5112635;28;20202;-69
2022/03/04 08:40:29;;;;;;;34.72;21.67;;;1.90;94.10;;;;;;5111998;28;20266;-69
2022/03/04 08:42:56;;;;;;;33.50;21.38;;;1.90;93.90;;;;;;5116296;28;20548;-69
2022/03/04 08:45:22;;;;;;;31.38;21.77;;;1.90;94.20;;;;;;5116989;28;20283;-70
2022/03/04 08:47:49;;;;;;;32.92;21.08;;;1.90;94.00;;;;;;5116546;28;20229;-69
2022/03/04 08:50:17;;;;;;;32.42;22.42;;;2.00;94.30;;;;;;5116490;28;20312;-69
2022/03/04 08:52:44;;;;;;;35.15;21.67;;;2.10;93.90;;;;;;5116365;28;20212;-69
2022/03/04 08:55:15;;;;;;;37.75;23.15;;;2.20;93.60;;;;;;5116284;28;20571;-69
2022/03/04 08:57:42;;;;;;;36.08;22.67;;;2.30;94.00;;;;;;5116348;28;20193;-69
2022/03/04 09:00:10;;;;;;;30.63;21.20;;;2.40;93.70;;;;;;5116316;27;20229;-69
2022/03/04 09:02:37;;;;;;;34.78;22.15;;;2.50;93.50;;;;;;5117192;28;20205;-68
2022/03/04 09:05:05;;;;;;;38.03;22.75;;;2.60;93.30;;;;;;5117520;28;20562;-69
2022/03/04 09:07:31;;;;;;;32.30;21.52;;;2.50;93.00;;;;;;5117444;28;20284;-68
2022/03/04 09:09:58;;;;;;;33.25;22.60;;;2.60;92.40;;;;;;5116844;28;20711;-68
2022/03/04 09:12:27;;;;;;;32.97;21.20;;;2.70;92.30;;;;;;5117408;28;20201;-68
2022/03/04 09:14:53;;;;;;;33.05;20.98;;;2.80;91.90;;;;;;5117304;28;20296;-68
2022/03/04 09:17:20;;;;;;;32.20;20.73;;;2.90;91.80;;;;;;5117264;28;20208;-68
2022/03/04 09:19:47;;;;;;;33.15;22.52;;;3.00;91.00;;;;;;5117060;27;20225;-68
2022/03/04 09:22:14;;;;;;;34.42;22.25;;;3.00;90.80;;;;;;5117348;28;20292;-69
2022/03/04 09:24:41;;;;;;;31.52;21.88;;;3.10;91.60;;;;;;5116900;28;20566;-68
2022/03/04 09:27:08;;;;;;;35.05;23.95;;;3.30;91.00;;;;;;5117036;28;20205;-68
2022/03/04 09:29:36;;;;;;;36.38;21.85;;;3.40;90.70;;;;;;5116965;28;20349;-68
2022/03/04 09:32:04;;;;;;;34.53;22.85;;;3.50;90.60;;;;;;5116707;28;20685;-68
2022/03/04 09:34:31;;;;;;;32.17;22.98;;;3.70;90.50;;;;;;5116904;28;20208;-68
2022/03/04 09:36:58;;;;;;;33.25;23.10;;;3.80;88.70;;;;;;5116884;28;20201;-68
2022/03/04 09:39:25;;;;;;;33.63;23.25;;;3.90;88.90;;;;;;5116792;28;20218;-68
2022/03/04 09:41:52;;;;;;;35.47;23.90;;;4.00;88.50;;;;;;5116637;28;20201;-68
2022/03/04 09:44:20;;;;;;;30.52;21.20;;;4.00;88.50;;;;;;5117043;28;20202;-68
2022/03/04 09:46:48;;;;;;;31.13;22.50;;;4.10;87.80;;;;;;5116936;28;20204;-68
2022/03/04 09:49:17;;;;;;;35.88;23.85;;;4.20;88.00;;;;;;5116385;28;20231;-68
2022/03/04 09:51:44;;;;;;;33.20;24.02;;;4.40;87.60;;;;;;5116186;28;20208;-68
2022/03/04 09:54:10;;;;;;;36.90;24.25;;;4.40;85.00;;;;;;5116696;28;20224;-68
2022/03/04 09:56:38;;;;;;;38.80;23.50;;;4.50;84.00;;;;;;5116462;28;20202;-68
2022/03/04 09:59:05;;;;;;;32.45;22.70;;;4.70;85.70;;;;;;5116290;27;20646;-68
2022/03/04 10:01:31;;;;;;;34.30;23.30;;;4.70;83.80;;;;;;5116223;28;20202;-68
2022/03/04 10:04:00;;;;;;;34.33;22.20;;;4.90;84.10;;;;;;5116283;28;20297;-69
2022/03/04 10:06:28;;;;;;;37.95;24.17;;;5.00;82.70;;;;;;5116501;28;20296;-68
2022/03/04 10:08:55;;;;;;;38.40;23.90;;;5.20;80.80;;;;;;5116146;28;20236;-69
2022/03/04 10:11:27;;;;;;;32.83;22.27;;;5.50;79.70;;;;;;5116053;28;20308;-68
2022/03/04 10:13:55;;;;;;;35.63;23.95;;;5.60;79.70;;;;;;5116117;28;20209;-68
2022/03/04 10:16:25;;;;;;;33.95;24.52;;;5.80;78.70;;;;;;5116219;28;20208;-69
2022/03/04 10:19:11;;;;;;;35.72;23.35;;;5.90;78.50;;;;;;5116099;28;20244;-68
2022/03/04 10:21:49;;;;;;;32.65;22.90;;;6.10;76.90;;;;;;5115774;28;20192;-68
2022/03/04 10:24:16;;;;;;;32.25;23.20;;;6.70;75.00;;;;;;5116246;28;20209;-68
2022/03/04 10:26:42;;;;;;;32.58;23.23;;;7.30;72.40;;;;;;5115684;28;20215;-68
2022/03/04 10:29:28;;;;;;;33.13;23.65;;;7.80;70.30;;;;;;5115580;28;20236;-69
2022/03/04 10:32:15;;;;;;;33.20;24.05;;;8.00;67.40;;;;;;5115927;28;20208;-69
2022/03/04 10:34:49;;;;;;;33.85;23.02;;;8.70;66.10;;;;;;5115791;28;20212;-68
2022/03/04 10:37:18;;;;;;;35.47;23.85;;;9.10;63.30;;;;;;5115840;27;20571;-68
2022/03/04 10:39:59;;;;;;;31.17;23.92;;;9.30;61.50;;;;;;5115259;28;20223;-69
2022/03/04 10:42:40;;;;;;;30.20;22.55;;;9.40;59.70;;;;;;5115442;28;20204;-68
2022/03/04 10:45:08;;;;;;;35.97;23.92;;;9.30;58.40;;;;;;5115689;28;20284;-68
2022/03/04 10:47:41;;;;;;;29.17;23.20;;;9.20;57.90;;;;;;5115606;28;20201;-68
2022/03/04 10:50:09;;;;;;;33.00;23.42;;;8.90;58.60;;;;;;5115852;28;20231;-69
2022/03/04 10:52:52;;;;;;;29.30;22.67;;;9.20;58.70;;;;;;5115407;28;20201;-68
2022/03/04 10:55:34;;;;;;;30.05;23.13;;;9.40;57.70;;;;;;5115495;28;20592;-68
2022/03/04 10:58:04;;;;;;;31.63;22.50;;;9.30;56.40;;;;;;5115250;28;20209;-68
2022/03/04 11:00:32;;;;;;;31.88;22.75;;;9.30;57.30;;;;;;5115230;28;20659;-68
2022/03/04 11:03:00;;;;;;;30.05;22.70;;;9.10;56.80;;;;;;5114999;28;20206;-68
2022/03/04 11:05:28;;;;;;;28.63;22.23;;;9.20;58.20;;;;;;5114340;28;20198;-68
2022/03/04 11:07:55;;;;;;;36.28;23.98;;;8.80;56.50;;;;;;5115014;27;20201;-68
2022/03/04 11:10:23;;;;;;;30.38;22.75;;;8.50;57.00;;;;;;5114683;28;20208;-69
2022/03/04 11:12:54;;;;;;;34.40;24.33;;;8.40;58.10;;;;;;5115145;28;20292;-68
2022/03/04 11:15:22;;;;;;;32.78;24.25;;;8.50;58.80;;;;;;5114955;28;20635;-68
2022/03/04 11:17:50;;;;;;;31.52;21.92;;;8.60;57.10;;;;;;5114914;28;20296;-68
2022/03/04 11:20:18;;;;;;;34.70;23.65;;;9.00;57.30;;;;;;5114428;28;20229;-68
2022/03/04 11:22:49;;;;;;;29.02;21.77;;;9.60;55.50;;;;;;5114858;28;20288;-68
2022/03/04 11:25:16;;;;;;;33.40;24.42;;;10.20;54.70;;;;;;5114840;28;20202;-68
2022/03/04 11:27:45;;;;;;;36.08;23.33;;;10.90;52.40;;;;;;5114186;28;20213;-69
2022/03/04 11:30:33;;;;;;;33.88;25.50;;;11.20;51.60;;;;;;5114512;28;20324;-69
2022/03/04 11:33:04;;;;;;;30.38;24.17;;;11.50;50.60;;;;;;5113845;28;20671;-69
2022/03/04 11:36:10;;;;;;;29.65;23.33;;;12.10;50.10;;;;;;5113970;28;20279;-69
2022/03/04 11:39:12;;;;;;;30.45;24.63;;;12.70;48.70;;;;;;5113773;28;20218;-69
2022/03/04 11:41:55;;;;;;;27.65;23.65;;;13.50;46.10;;;;;;5113744;28;20198;-69
2022/03/04 11:44:22;;;;;;;27.73;22.52;;;13.60;46.20;;;;;;5100621;28;20238;-69
2022/03/04 11:46:51;;;;;;;28.42;22.35;;;13.00;45.10;;;;;;5113660;28;20207;-69
2022/03/04 11:49:44;;;;;;;29.25;23.33;;;12.60;45.20;;;;;;5113522;28;20248;-69
2022/03/04 11:52:24;;;;;;;30.45;22.95;;;11.90;45.60;;;;;;5098764;28;20210;-69
2022/03/04 11:55:20;;;;;;;29.10;23.00;;;11.30;46.40;;;;;;5113508;28;20201;-69
2022/03/04 11:57:48;;;;;;;32.55;22.20;;;10.90;45.90;;;;;;5113418;28;20201;-68
2022/03/04 12:00:36;;;;;;;30.35;20.38;;;10.10;47.10;;;;;;5113324;28;20310;-68
2022/03/04 12:03:21;;;;;;;28.20;21.10;;;9.80;50.30;;;;;;5113440;28;20608;-68
2022/03/04 12:05:50;;;;;;;28.90;21.13;;;10.10;48.50;;;;;;5113464;28;20205;-68
2022/03/04 12:08:17;;;;;;;26.42;21.52;;;10.50;49.20;;;;;;5113582;28;20626;-69
2022/03/04 12:11:01;;;;;;;26.63;19.90;;;10.70;46.60;;;;;;5113222;28;20197;-68
2022/03/04 12:13:29;;;;;;;27.23;20.67;;;11.30;46.90;;;;;;5113353;28;20548;-69
2022/03/04 12:16:03;;;;;;;27.23;21.02;;;12.30;46.20;;;;;;5112309;28;20208;-69
2022/03/04 12:18:38;;;;;;;25.20;19.80;;;13.20;42.60;;;;;;5113479;28;20222;-69
2022/03/04 12:21:16;;;;;;;22.70;16.75;;;13.10;41.90;;;;;;5112850;28;20650;-69
2022/03/04 12:23:49;;;;;;;21.40;17.85;;;13.30;40.60;;;;;;5113168;28;20208;-69
2022/03/04 12:26:24;;;;;;;23.98;19.17;;;13.70;40.80;;;;;;5075419;28;1073254;-70
2022/03/04 12:28:53;;;;;;;22.02;17.17;;;13.80;39.50;;;;;;5113668;28;20716;-69
2022/03/04 12:31:27;;;;;;;21.55;16.45;;;14.10;38.50;;;;;;5114231;28;20204;-69
2022/03/04 12:33:57;;;;;;;18.02;14.82;;;14.30;37.20;;;;;;5113926;28;20210;-69
2022/03/04 12:36:27;;;;;;;20.70;16.08;;;14.10;37.00;;;;;;5113911;28;20209;-69
2022/03/04 12:38:56;;;;;;;20.90;16.98;;;14.10;37.50;;;;;;5113953;28;20623;-69
2022/03/04 12:41:26;;;;;;;19.50;16.20;;;13.90;36.30;;;;;;5113643;28;20205;-69
2022/03/04 12:43:55;;;;;;;25.65;16.80;;;12.90;36.90;;;;;;5114001;28;20190;-69